sensor_id;sensor_type;location;lat;lon;timestamp;pressure;altitude;pressure_sealevel;temperature;humidity
49122;BME280;35529;44.342;25.944;2023-03-21T00:01:16;100634.56;;;7.99;100.00
49122;BME280;35529;44.342;25.944;2023-03-21T00:03:47;100630.19;;;7.92;100.00
49122;BME280;35529;44.342;25.944;2023-03-21T00:06:18;100625.03;;;7.90;100.00
49122;BME280;35529;44.342;25.944;2023-03-21T00:08:49;100631.97;;;7.91;100.00
49122;BME280;35529;44.342;25.944;2023-03-21T00:11:18;100635.00;;;7.88;100.00
49122;BME280;35529;44.342;25.944;2023-03-21T00:13:49;100624.22;;;7.89;100.00
49122;BME280;35529;44.342;25.944;2023-03-21T00:16:18;100626.00;;;7.97;100.00
49122;BME280;35529;44.342;25.944;2023-03-21T00:18:49;100628.72;;;8.12;100.00
49122;BME280;35529;44.342;25.944;2023-03-21T00:21:19;100626.06;;;8.12;100.00
49122;BME280;35529;44.342;25.944;2023-03-21T00:23:47;100629.44;;;8.21;100.00
49122;BME280;35529;44.342;25.944;2023-03-21T00:26:13;100631.22;;;8.29;100.00
49122;BME280;35529;44.342;25.944;2023-03-21T00:28:44;100637.78;;;8.33;100.00
49122;BME280;35529;44.342;25.944;2023-03-21T00:31:15;100633.69;;;8.30;100.00
49122;BME280;35529;44.342;25.944;2023-03-21T00:33:44;100630.47;;;8.20;100.00
49122;BME280;35529;44.342;25.944;2023-03-21T00:36:11;100634.47;;;8.16;100.00
49122;BME280;35529;44.342;25.944;2023-03-21T00:38:42;100632.41;;;8.03;100.00
49122;BME280;35529;44.342;25.944;2023-03-21T00:41:11;100635.00;;;7.88;100.00
49122;BME280;35529;44.342;25.944;2023-03-21T00:43:40;100635.38;;;7.77;100.00
49122;BME280;35529;44.342;25.944;2023-03-21T00:46:09;100624.28;;;7.81;100.00
49122;BME280;35529;44.342;25.944;2023-03-21T00:48:35;100630.63;;;7.95;100.00
49122;BME280;35529;44.342;25.944;2023-03-21T00:51:01;100626.31;;;8.02;100.00
49122;BME280;35529;44.342;25.944;2023-03-21T00:53:29;100621.22;;;7.93;100.00
49122;BME280;35529;44.342;25.944;2023-03-21T00:55:56;100613.00;;;7.87;100.00
49122;BME280;35529;44.342;25.944;2023-03-21T00:58:22;100612.13;;;7.95;100.00
49122;BME280;35529;44.342;25.944;2023-03-21T01:00:48;100608.66;;;7.95;100.00
49122;BME280;35529;44.342;25.944;2023-03-21T01:03:15;100611.78;;;7.98;100.00
49122;BME280;35529;44.342;25.944;2023-03-21T01:05:43;100605.97;;;8.03;100.00
49122;BME280;35529;44.342;25.944;2023-03-21T01:08:28;100607.44;;;8.05;100.00
49122;BME280;35529;44.342;25.944;2023-03-21T01:10:59;100598.81;;;8.12;100.00
49122;BME280;35529;44.342;25.944;2023-03-21T01:13:26;100598.44;;;8.15;100.00
49122;BME280;35529;44.342;25.944;2023-03-21T01:15:53;100594.44;;;8.19;100.00
49122;BME280;35529;44.342;25.944;2023-03-21T01:18:21;100587.88;;;8.15;100.00
49122;BME280;35529;44.342;25.944;2023-03-21T01:20:50;100588.78;;;8.22;100.00
49122;BME280;35529;44.342;25.944;2023-03-21T01:23:16;100586.78;;;8.24;100.00
49122;BME280;35529;44.342;25.944;2023-03-21T01:25:46;100590.44;;;8.23;100.00
49122;BME280;35529;44.342;25.944;2023-03-21T01:28:12;100598.91;;;8.18;100.00
49122;BME280;35529;44.342;25.944;2023-03-21T01:30:43;100599.44;;;8.14;100.00
49122;BME280;35529;44.342;25.944;2023-03-21T01:33:09;100596.50;;;8.09;100.00
49122;BME280;35529;44.342;25.944;2023-03-21T01:35:35;100591.50;;;7.91;100.00
49122;BME280;35529;44.342;25.944;2023-03-21T01:38:06;100592.13;;;7.69;100.00
49122;BME280;35529;44.342;25.944;2023-03-21T01:40:38;100587.78;;;7.53;100.00
49122;BME280;35529;44.342;25.944;2023-03-21T01:46:05;100577.06;;;7.47;100.00
49122;BME280;35529;44.342;25.944;2023-03-21T01:48:35;100568.47;;;7.53;100.00
49122;BME280;35529;44.342;25.944;2023-03-21T01:51:05;100570.88;;;7.63;100.00
49122;BME280;35529;44.342;25.944;2023-03-21T01:53:35;100555.78;;;7.71;100.00
49122;BME280;35529;44.342;25.944;2023-03-21T01:56:05;100555.25;;;7.76;100.00
49122;BME280;35529;44.342;25.944;2023-03-21T01:58:36;100554.09;;;7.79;100.00
49122;BME280;35529;44.342;25.944;2023-03-21T02:01:05;100549.44;;;7.81;100.00
49122;BME280;35529;44.342;25.944;2023-03-21T02:03:35;100546.34;;;7.77;100.00
49122;BME280;35529;44.342;25.944;2023-03-21T02:06:31;100550.97;;;7.75;100.00
49122;BME280;35529;44.342;25.944;2023-03-21T02:08:59;100557.09;;;7.76;100.00
49122;BME280;35529;44.342;25.944;2023-03-21T02:11:29;100554.59;;;7.74;100.00
49122;BME280;35529;44.342;25.944;2023-03-21T02:13:58;100535.09;;;7.75;100.00
49122;BME280;35529;44.342;25.944;2023-03-21T02:27:16;100522.06;;;7.74;100.00
49122;BME280;35529;44.342;25.944;2023-03-21T02:40:41;100551.91;;;7.59;100.00
49122;BME280;35529;44.342;25.944;2023-03-21T02:43:27;100562.34;;;7.52;100.00
49122;BME280;35529;44.342;25.944;2023-03-21T02:46:02;100552.47;;;7.46;100.00
49122;BME280;35529;44.342;25.944;2023-03-21T02:48:35;100554.09;;;7.47;100.00
49122;BME280;35529;44.342;25.944;2023-03-21T02:51:05;100549.50;;;7.49;100.00
49122;BME280;35529;44.342;25.944;2023-03-21T02:53:34;100546.53;;;7.44;100.00
49122;BME280;35529;44.342;25.944;2023-03-21T02:56:04;100551.00;;;7.44;100.00
49122;BME280;35529;44.342;25.944;2023-03-21T02:58:35;100550.22;;;7.35;100.00
49122;BME280;35529;44.342;25.944;2023-03-21T03:01:03;100555.44;;;7.43;100.00
49122;BME280;35529;44.342;25.944;2023-03-21T03:03:31;100559.88;;;7.51;100.00
49122;BME280;35529;44.342;25.944;2023-03-21T03:06:02;100566.31;;;7.48;100.00
49122;BME280;35529;44.342;25.944;2023-03-21T03:11:25;100566.31;;;7.48;100.00
49122;BME280;35529;44.342;25.944;2023-03-21T03:14:15;100568.53;;;7.36;100.00
49122;BME280;35529;44.342;25.944;2023-03-21T03:19:29;100573.97;;;7.03;100.00
49122;BME280;35529;44.342;25.944;2023-03-21T03:22:36;100566.75;;;6.89;100.00
49122;BME280;35529;44.342;25.944;2023-03-21T03:24:55;100555.53;;;6.95;100.00
49122;BME280;35529;44.342;25.944;2023-03-21T03:27:32;100561.34;;;6.82;100.00
49122;BME280;35529;44.342;25.944;2023-03-21T03:30:02;100552.28;;;6.77;100.00
49122;BME280;35529;44.342;25.944;2023-03-21T03:32:32;100554.41;;;6.81;100.00
49122;BME280;35529;44.342;25.944;2023-03-21T03:35:03;100553.25;;;6.84;100.00
49122;BME280;35529;44.342;25.944;2023-03-21T03:37:32;100570.91;;;6.83;100.00
49122;BME280;35529;44.342;25.944;2023-03-21T03:40:06;100571.22;;;6.88;100.00
49122;BME280;35529;44.342;25.944;2023-03-21T03:42:34;100571.06;;;6.90;100.00
49122;BME280;35529;44.342;25.944;2023-03-21T03:45:04;100572.66;;;6.99;100.00
49122;BME280;35529;44.342;25.944;2023-03-21T03:50:02;100570.00;;;7.08;100.00
49122;BME280;35529;44.342;25.944;2023-03-21T03:52:30;100579.34;;;7.18;100.00
49122;BME280;35529;44.342;25.944;2023-03-21T03:54:58;100582.00;;;7.18;100.00
49122;BME280;35529;44.342;25.944;2023-03-21T03:57:28;100581.16;;;7.18;100.00
49122;BME280;35529;44.342;25.944;2023-03-21T03:59:57;100578.97;;;7.30;100.00
49122;BME280;35529;44.342;25.944;2023-03-21T04:02:23;100578.19;;;7.21;100.00
49122;BME280;35529;44.342;25.944;2023-03-21T04:04:55;100574.38;;;7.24;100.00
49122;BME280;35529;44.342;25.944;2023-03-21T04:07:22;100580.41;;;7.41;100.00
49122;BME280;35529;44.342;25.944;2023-03-21T04:09:51;100581.19;;;7.49;100.00
49122;BME280;35529;44.342;25.944;2023-03-21T04:12:20;100584.63;;;7.50;100.00
49122;BME280;35529;44.342;25.944;2023-03-21T04:14:48;100577.13;;;7.38;100.00
49122;BME280;35529;44.342;25.944;2023-03-21T04:17:15;100585.22;;;7.37;100.00
49122;BME280;35529;44.342;25.944;2023-03-21T04:19:41;100596.59;;;7.37;100.00
49122;BME280;35529;44.342;25.944;2023-03-21T04:22:07;100592.13;;;7.38;100.00
49122;BME280;35529;44.342;25.944;2023-03-21T04:24:33;100600.94;;;7.30;100.00
49122;BME280;35529;44.342;25.944;2023-03-21T04:27:02;100594.63;;;7.40;100.00
49122;BME280;35529;44.342;25.944;2023-03-21T04:29:31;100605.16;;;7.48;100.00
49122;BME280;35529;44.342;25.944;2023-03-21T04:32:02;100600.97;;;7.53;100.00
49122;BME280;35529;44.342;25.944;2023-03-21T04:34:29;100596.19;;;7.57;100.00
49122;BME280;35529;44.342;25.944;2023-03-21T04:37:08;100596.63;;;7.61;100.00
49122;BME280;35529;44.342;25.944;2023-03-21T04:39:40;100593.31;;;7.67;100.00
49122;BME280;35529;44.342;25.944;2023-03-21T05:06:32;100591.47;;;8.37;100.00
49122;BME280;35529;44.342;25.944;2023-03-21T05:09:18;100586.41;;;8.50;100.00
49122;BME280;35529;44.342;25.944;2023-03-21T05:15:02;100594.22;;;8.82;100.00
49122;BME280;35529;44.342;25.944;2023-03-21T05:17:45;100594.41;;;8.95;100.00
49122;BME280;35529;44.342;25.944;2023-03-21T05:20:17;100594.59;;;9.09;100.00
49122;BME280;35529;44.342;25.944;2023-03-21T05:32:04;100589.84;;;9.55;100.00
49122;BME280;35529;44.342;25.944;2023-03-21T05:34:57;100589.16;;;9.68;100.00
49122;BME280;35529;44.342;25.944;2023-03-21T05:37:29;100584.13;;;9.73;100.00
49122;BME280;35529;44.342;25.944;2023-03-21T05:40:08;100582.56;;;9.79;100.00
49122;BME280;35529;44.342;25.944;2023-03-21T05:42:57;100582.84;;;9.91;100.00
49122;BME280;35529;44.342;25.944;2023-03-21T05:54:08;100571.78;;;10.31;100.00
49122;BME280;35529;44.342;25.944;2023-03-21T05:56:44;100569.41;;;10.36;100.00
49122;BME280;35529;44.342;25.944;2023-03-21T05:59:30;100564.59;;;10.46;100.00
49122;BME280;35529;44.342;25.944;2023-03-21T06:08:32;100582.81;;;10.84;100.00
49122;BME280;35529;44.342;25.944;2023-03-21T06:11:07;100591.47;;;11.00;100.00
49122;BME280;35529;44.342;25.944;2023-03-21T06:28:45;100600.00;;;11.99;100.00
49122;BME280;35529;44.342;25.944;2023-03-21T06:38:30;100608.41;;;12.63;100.00
49122;BME280;35529;44.342;25.944;2023-03-21T06:44:49;100601.63;;;12.73;100.00
49122;BME280;35529;44.342;25.944;2023-03-21T06:51:02;100629.44;;;13.04;100.00
49122;BME280;35529;44.342;25.944;2023-03-21T06:53:29;100631.47;;;13.16;100.00
49122;BME280;35529;44.342;25.944;2023-03-21T06:56:37;100618.53;;;13.26;100.00
49122;BME280;35529;44.342;25.944;2023-03-21T07:02:25;100615.69;;;13.14;100.00
49122;BME280;35529;44.342;25.944;2023-03-21T07:07:57;100632.25;;;13.36;100.00
49122;BME280;35529;44.342;25.944;2023-03-21T07:10:28;100628.78;;;13.36;100.00
49122;BME280;35529;44.342;25.944;2023-03-21T07:16:11;100633.47;;;13.27;100.00
49122;BME280;35529;44.342;25.944;2023-03-21T07:24:30;100618.53;;;13.39;100.00
49122;BME280;35529;44.342;25.944;2023-03-21T07:27:18;100626.88;;;13.50;100.00
49122;BME280;35529;44.342;25.944;2023-03-21T07:29:59;100621.47;;;13.63;100.00
49122;BME280;35529;44.342;25.944;2023-03-21T07:32:59;100610.41;;;13.60;100.00
49122;BME280;35529;44.342;25.944;2023-03-21T07:47:56;100628.47;;;13.96;100.00
49122;BME280;35529;44.342;25.944;2023-03-21T07:50:25;100623.13;;;13.96;100.00
49122;BME280;35529;44.342;25.944;2023-03-21T07:52:53;100625.38;;;13.99;100.00
49122;BME280;35529;44.342;25.944;2023-03-21T07:55:22;100633.16;;;14.01;100.00
49122;BME280;35529;44.342;25.944;2023-03-21T07:57:48;100622.88;;;14.04;100.00
49122;BME280;35529;44.342;25.944;2023-03-21T08:00:18;100613.03;;;13.98;100.00
49122;BME280;35529;44.342;25.944;2023-03-21T08:02:54;100611.47;;;13.90;100.00
49122;BME280;35529;44.342;25.944;2023-03-21T08:08:28;100612.63;;;14.01;100.00
49122;BME280;35529;44.342;25.944;2023-03-21T08:11:33;100613.13;;;14.17;100.00
49122;BME280;35529;44.342;25.944;2023-03-21T08:14:36;100619.56;;;14.34;100.00
49122;BME280;35529;44.342;25.944;2023-03-21T08:17:34;100605.28;;;14.47;100.00
49122;BME280;35529;44.342;25.944;2023-03-21T08:20:04;100607.03;;;14.60;100.00
49122;BME280;35529;44.342;25.944;2023-03-21T08:22:38;100614.81;;;14.68;100.00
49122;BME280;35529;44.342;25.944;2023-03-21T08:25:04;100604.69;;;14.70;100.00
49122;BME280;35529;44.342;25.944;2023-03-21T08:27:37;100603.38;;;14.80;100.00
49122;BME280;35529;44.342;25.944;2023-03-21T08:30:11;100609.53;;;14.80;100.00
49122;BME280;35529;44.342;25.944;2023-03-21T08:32:38;100608.72;;;14.80;100.00
49122;BME280;35529;44.342;25.944;2023-03-21T08:35:10;100602.34;;;14.99;100.00
49122;BME280;35529;44.342;25.944;2023-03-21T08:41:10;100606.47;;;15.32;100.00
49122;BME280;35529;44.342;25.944;2023-03-21T08:53:07;100586.19;;;16.16;100.00
49122;BME280;35529;44.342;25.944;2023-03-21T08:58:54;100583.63;;;16.80;100.00
49122;BME280;35529;44.342;25.944;2023-03-21T09:01:24;100575.38;;;16.94;100.00
49122;BME280;35529;44.342;25.944;2023-03-21T09:03:54;100574.69;;;17.27;100.00
49122;BME280;35529;44.342;25.944;2023-03-21T09:06:20;100570.00;;;17.63;100.00
49122;BME280;35529;44.342;25.944;2023-03-21T09:08:51;100577.09;;;17.86;100.00
49122;BME280;35529;44.342;25.944;2023-03-21T09:11:20;100570.06;;;17.97;100.00
49122;BME280;35529;44.342;25.944;2023-03-21T09:13:47;100563.31;;;17.95;100.00
49122;BME280;35529;44.342;25.944;2023-03-21T09:16:13;100563.88;;;17.97;100.00
49122;BME280;35529;44.342;25.944;2023-03-21T09:18:42;100550.53;;;18.02;100.00
49122;BME280;35529;44.342;25.944;2023-03-21T09:21:18;100557.53;;;18.03;100.00
49122;BME280;35529;44.342;25.944;2023-03-21T09:23:48;100556.81;;;18.07;100.00
49122;BME280;35529;44.342;25.944;2023-03-21T09:26:21;100551.09;;;18.04;100.00
49122;BME280;35529;44.342;25.944;2023-03-21T09:28:53;100545.69;;;17.87;100.00
49122;BME280;35529;44.342;25.944;2023-03-21T09:31:20;100536.69;;;17.93;100.00
49122;BME280;35529;44.342;25.944;2023-03-21T09:33:51;100543.00;;;17.87;100.00
49122;BME280;35529;44.342;25.944;2023-03-21T09:36:22;100540.41;;;17.75;100.00
49122;BME280;35529;44.342;25.944;2023-03-21T09:38:49;100545.28;;;17.78;100.00
49122;BME280;35529;44.342;25.944;2023-03-21T09:41:24;100547.97;;;17.78;100.00
49122;BME280;35529;44.342;25.944;2023-03-21T09:43:58;100550.56;;;17.73;100.00
49122;BME280;35529;44.342;25.944;2023-03-21T09:58:33;100551.66;;;18.23;100.00
49122;BME280;35529;44.342;25.944;2023-03-21T10:01:08;100551.81;;;18.33;100.00
49122;BME280;35529;44.342;25.944;2023-03-21T10:03:38;100557.19;;;18.50;100.00
49122;BME280;35529;44.342;25.944;2023-03-21T10:06:09;100550.63;;;18.63;100.00
49122;BME280;35529;44.342;25.944;2023-03-21T10:08:38;100551.38;;;18.58;100.00
49122;BME280;35529;44.342;25.944;2023-03-21T10:11:23;100553.88;;;18.65;100.00
49122;BME280;35529;44.342;25.944;2023-03-21T10:16:31;100544.47;;;19.07;100.00
49122;BME280;35529;44.342;25.944;2023-03-21T10:19:02;100543.38;;;19.30;100.00
49122;BME280;35529;44.342;25.944;2023-03-21T10:21:29;100552.41;;;19.46;100.00
49122;BME280;35529;44.342;25.944;2023-03-21T10:24:01;100543.59;;;19.51;100.00
49122;BME280;35529;44.342;25.944;2023-03-21T10:26:27;100549.09;;;19.61;100.00
49122;BME280;35529;44.342;25.944;2023-03-21T10:28:56;100544.81;;;19.65;100.00
49122;BME280;35529;44.342;25.944;2023-03-21T10:31:26;100546.53;;;19.76;100.00
49122;BME280;35529;44.342;25.944;2023-03-21T10:33:57;100541.25;;;19.87;100.00
49122;BME280;35529;44.342;25.944;2023-03-21T10:36:28;100540.44;;;19.86;100.00
49122;BME280;35529;44.342;25.944;2023-03-21T10:41:29;100538.63;;;19.97;100.00
49122;BME280;35529;44.342;25.944;2023-03-21T10:44:06;100542.06;;;19.87;100.00
49122;BME280;35529;44.342;25.944;2023-03-21T10:46:37;100525.75;;;19.72;100.00
49122;BME280;35529;44.342;25.944;2023-03-21T10:49:06;100521.72;;;19.74;100.00
49122;BME280;35529;44.342;25.944;2023-03-21T10:51:35;100517.06;;;19.92;100.00
49122;BME280;35529;44.342;25.944;2023-03-21T10:54:13;100529.50;;;20.03;100.00
49122;BME280;35529;44.342;25.944;2023-03-21T10:57:18;100524.75;;;20.16;100.00
49122;BME280;35529;44.342;25.944;2023-03-21T10:59:53;100526.38;;;20.17;100.00
49122;BME280;35529;44.342;25.944;2023-03-21T11:08:54;100533.78;;;20.85;100.00
49122;BME280;35529;44.342;25.944;2023-03-21T11:11:27;100523.28;;;20.88;100.00
49122;BME280;35529;44.342;25.944;2023-03-21T11:14:02;100521.16;;;21.01;100.00
49122;BME280;35529;44.342;25.944;2023-03-21T11:16:40;100531.22;;;21.26;100.00
49122;BME280;35529;44.342;25.944;2023-03-21T11:19:14;100528.31;;;21.53;100.00
49122;BME280;35529;44.342;25.944;2023-03-21T11:21:41;100521.59;;;21.71;100.00
49122;BME280;35529;44.342;25.944;2023-03-21T11:24:14;100514.81;;;21.79;100.00
49122;BME280;35529;44.342;25.944;2023-03-21T11:26:47;100519.13;;;22.01;100.00
49122;BME280;35529;44.342;25.944;2023-03-21T11:31:46;100498.81;;;22.14;100.00
49122;BME280;35529;44.342;25.944;2023-03-21T11:34:22;100492.28;;;22.30;100.00
49122;BME280;35529;44.342;25.944;2023-03-21T11:36:54;100488.50;;;22.41;100.00
49122;BME280;35529;44.342;25.944;2023-03-21T11:39:32;100483.84;;;22.63;100.00
49122;BME280;35529;44.342;25.944;2023-03-21T11:42:01;100484.91;;;22.67;99.91
49122;BME280;35529;44.342;25.944;2023-03-21T11:44:33;100484.34;;;22.70;100.00
49122;BME280;35529;44.342;25.944;2023-03-21T11:47:00;100485.13;;;22.70;97.45
49122;BME280;35529;44.342;25.944;2023-03-21T11:49:29;100488.16;;;22.64;94.23
49122;BME280;35529;44.342;25.944;2023-03-21T11:52:11;100478.66;;;22.66;100.00
49122;BME280;35529;44.342;25.944;2023-03-21T11:54:55;100469.47;;;22.67;89.83
49122;BME280;35529;44.342;25.944;2023-03-21T11:59:55;100468.97;;;22.55;100.00
49122;BME280;35529;44.342;25.944;2023-03-21T12:05:16;100466.19;;;22.75;100.00
49122;BME280;35529;44.342;25.944;2023-03-21T12:08:02;100469.16;;;22.74;100.00
49122;BME280;35529;44.342;25.944;2023-03-21T12:15:42;100460.34;;;22.48;100.00
49122;BME280;35529;44.342;25.944;2023-03-21T12:21:16;100459.28;;;22.43;100.00
49122;BME280;35529;44.342;25.944;2023-03-21T12:23:54;100459.03;;;22.40;100.00
49122;BME280;35529;44.342;25.944;2023-03-21T12:26:30;100455.00;;;22.37;100.00
49122;BME280;35529;44.342;25.944;2023-03-21T12:29:09;100457.69;;;22.42;100.00
49122;BME280;35529;44.342;25.944;2023-03-21T12:34:20;100454.78;;;22.08;100.00
49122;BME280;35529;44.342;25.944;2023-03-21T12:44:25;100440.69;;;22.06;100.00
49122;BME280;35529;44.342;25.944;2023-03-21T12:47:01;100439.63;;;21.97;100.00
49122;BME280;35529;44.342;25.944;2023-03-21T12:49:41;100425.84;;;22.03;100.00
49122;BME280;35529;44.342;25.944;2023-03-21T12:52:12;100429.59;;;22.07;100.00
49122;BME280;35529;44.342;25.944;2023-03-21T12:54:46;100430.72;;;22.01;100.00
49122;BME280;35529;44.342;25.944;2023-03-21T12:57:20;100422.00;;;22.25;100.00
49122;BME280;35529;44.342;25.944;2023-03-21T13:07:36;100400.41;;;22.09;100.00
49122;BME280;35529;44.342;25.944;2023-03-21T13:10:11;100393.16;;;22.00;100.00
49122;BME280;35529;44.342;25.944;2023-03-21T13:18:28;100382.66;;;21.72;100.00
49122;BME280;35529;44.342;25.944;2023-03-21T13:21:03;100383.50;;;21.57;100.00
49122;BME280;35529;44.342;25.944;2023-03-21T13:23:35;100386.44;;;21.46;100.00
49122;BME280;35529;44.342;25.944;2023-03-21T13:26:02;100377.81;;;21.28;100.00
49122;BME280;35529;44.342;25.944;2023-03-21T13:28:29;100366.75;;;21.30;100.00
49122;BME280;35529;44.342;25.944;2023-03-21T13:31:16;100361.88;;;21.16;100.00
49122;BME280;35529;44.342;25.944;2023-03-21T13:33:52;100373.78;;;21.00;100.00
49122;BME280;35529;44.342;25.944;2023-03-21T13:36:26;100362.13;;;20.79;100.00
49122;BME280;35529;44.342;25.944;2023-03-21T13:38:55;100369.91;;;20.59;100.00
49122;BME280;35529;44.342;25.944;2023-03-21T13:41:27;100352.34;;;20.41;100.00
49122;BME280;35529;44.342;25.944;2023-03-21T13:51:21;100352.94;;;19.96;100.00
49122;BME280;35529;44.342;25.944;2023-03-21T13:59:14;100364.03;;;19.62;100.00
49122;BME280;35529;44.342;25.944;2023-03-21T14:04:34;100358.22;;;19.37;100.00
49122;BME280;35529;44.342;25.944;2023-03-21T14:07:16;100357.13;;;19.33;100.00
49122;BME280;35529;44.342;25.944;2023-03-21T14:09:53;100354.31;;;19.18;100.00
49122;BME280;35529;44.342;25.944;2023-03-21T14:12:24;100354.50;;;19.11;100.00
49122;BME280;35529;44.342;25.944;2023-03-21T14:15:00;100351.78;;;19.06;100.00
49122;BME280;35529;44.342;25.944;2023-03-21T14:17:31;100356.66;;;19.09;100.00
49122;BME280;35529;44.342;25.944;2023-03-21T14:22:52;100365.97;;;18.96;100.00
49122;BME280;35529;44.342;25.944;2023-03-21T14:25:19;100364.31;;;18.95;100.00
49122;BME280;35529;44.342;25.944;2023-03-21T14:27:47;100374.81;;;18.91;100.00
49122;BME280;35529;44.342;25.944;2023-03-21T14:30:24;100374.16;;;18.84;100.00
49122;BME280;35529;44.342;25.944;2023-03-21T14:32:58;100371.91;;;18.76;100.00
49122;BME280;35529;44.342;25.944;2023-03-21T14:35:32;100384.50;;;18.70;100.00
49122;BME280;35529;44.342;25.944;2023-03-21T14:38:04;100376.69;;;18.69;100.00
49122;BME280;35529;44.342;25.944;2023-03-21T14:40:32;100372.63;;;18.66;100.00
49122;BME280;35529;44.342;25.944;2023-03-21T14:42:59;100384.97;;;18.62;100.00
49122;BME280;35529;44.342;25.944;2023-03-21T14:45:29;100381.16;;;18.58;100.00
49122;BME280;35529;44.342;25.944;2023-03-21T14:47:59;100379.72;;;18.50;100.00
49122;BME280;35529;44.342;25.944;2023-03-21T14:50:31;100375.28;;;18.39;100.00
49122;BME280;35529;44.342;25.944;2023-03-21T14:53:00;100381.34;;;18.29;100.00
49122;BME280;35529;44.342;25.944;2023-03-21T14:55:29;100379.19;;;18.26;100.00
49122;BME280;35529;44.342;25.944;2023-03-21T14:58:00;100388.81;;;18.22;100.00
49122;BME280;35529;44.342;25.944;2023-03-21T15:00:27;100375.56;;;18.15;100.00
49122;BME280;35529;44.342;25.944;2023-03-21T15:02:56;100370.91;;;18.11;100.00
49122;BME280;35529;44.342;25.944;2023-03-21T15:05:31;100362.78;;;18.05;100.00
49122;BME280;35529;44.342;25.944;2023-03-21T15:10:37;100365.09;;;17.97;100.00
49122;BME280;35529;44.342;25.944;2023-03-21T15:13:14;100365.00;;;17.91;100.00
49122;BME280;35529;44.342;25.944;2023-03-21T15:15:43;100361.91;;;17.83;100.00
49122;BME280;35529;44.342;25.944;2023-03-21T15:18:13;100351.91;;;17.78;100.00
49122;BME280;35529;44.342;25.944;2023-03-21T15:20:44;100355.34;;;17.73;100.00
49122;BME280;35529;44.342;25.944;2023-03-21T15:23:15;100353.56;;;17.62;100.00
49122;BME280;35529;44.342;25.944;2023-03-21T15:25:47;100346.66;;;17.49;100.00
49122;BME280;35529;44.342;25.944;2023-03-21T15:28:15;100349.50;;;17.42;100.00
49122;BME280;35529;44.342;25.944;2023-03-21T15:30:46;100348.28;;;17.33;100.00
49122;BME280;35529;44.342;25.944;2023-03-21T15:33:13;100345.22;;;17.24;100.00
49122;BME280;35529;44.342;25.944;2023-03-21T15:36:00;100347.03;;;17.19;100.00
49122;BME280;35529;44.342;25.944;2023-03-21T15:38:38;100345.78;;;17.09;100.00
49122;BME280;35529;44.342;25.944;2023-03-21T15:41:12;100341.63;;;17.02;100.00
49122;BME280;35529;44.342;25.944;2023-03-21T15:43:38;100343.97;;;16.98;100.00
49122;BME280;35529;44.342;25.944;2023-03-21T15:46:53;100349.03;;;16.95;100.00
49122;BME280;35529;44.342;25.944;2023-03-21T15:49:05;100358.25;;;16.87;100.00
49122;BME280;35529;44.342;25.944;2023-03-21T15:51:35;100357.56;;;16.80;100.00
49122;BME280;35529;44.342;25.944;2023-03-21T15:54:02;100356.91;;;16.72;100.00
49122;BME280;35529;44.342;25.944;2023-03-21T15:56:31;100355.28;;;16.71;100.00
49122;BME280;35529;44.342;25.944;2023-03-21T15:59:01;100358.69;;;16.67;100.00
49122;BME280;35529;44.342;25.944;2023-03-21T16:01:31;100356.72;;;16.62;100.00
49122;BME280;35529;44.342;25.944;2023-03-21T16:04:07;100362.22;;;16.55;100.00
49122;BME280;35529;44.342;25.944;2023-03-21T16:06:35;100360.75;;;16.48;100.00
49122;BME280;35529;44.342;25.944;2023-03-21T16:11:40;100366.25;;;16.41;100.00
49122;BME280;35529;44.342;25.944;2023-03-21T16:14:07;100367.44;;;16.33;100.00
49122;BME280;35529;44.342;25.944;2023-03-21T16:16:37;100367.69;;;16.32;100.00
49122;BME280;35529;44.342;25.944;2023-03-21T16:19:03;100375.38;;;16.28;100.00
49122;BME280;35529;44.342;25.944;2023-03-21T16:21:34;100374.47;;;16.22;100.00
49122;BME280;35529;44.342;25.944;2023-03-21T16:24:12;100372.16;;;16.14;100.00
49122;BME280;35529;44.342;25.944;2023-03-21T16:26:42;100380.38;;;16.13;100.00
49122;BME280;35529;44.342;25.944;2023-03-21T16:29:13;100380.88;;;16.09;100.00
49122;BME280;35529;44.342;25.944;2023-03-21T16:31:39;100391.22;;;16.06;100.00
49122;BME280;35529;44.342;25.944;2023-03-21T16:34:08;100395.22;;;16.03;100.00
49122;BME280;35529;44.342;25.944;2023-03-21T16:36:36;100391.34;;;15.99;100.00
49122;BME280;35529;44.342;25.944;2023-03-21T16:39:18;100388.00;;;15.92;100.00
49122;BME280;35529;44.342;25.944;2023-03-21T16:41:54;100392.19;;;15.88;100.00
49122;BME280;35529;44.342;25.944;2023-03-21T16:44:21;100391.84;;;15.84;100.00
49122;BME280;35529;44.342;25.944;2023-03-21T16:46:52;100391.69;;;15.79;100.00
49122;BME280;35529;44.342;25.944;2023-03-21T16:49:19;100396.72;;;15.75;100.00
49122;BME280;35529;44.342;25.944;2023-03-21T16:51:52;100394.72;;;15.71;100.00
49122;BME280;35529;44.342;25.944;2023-03-21T16:54:22;100390.19;;;15.71;100.00
49122;BME280;35529;44.342;25.944;2023-03-21T16:56:56;100403.78;;;15.70;100.00
49122;BME280;35529;44.342;25.944;2023-03-21T16:59:24;100404.03;;;15.68;100.00
49122;BME280;35529;44.342;25.944;2023-03-21T17:02:01;100401.81;;;15.65;100.00
49122;BME280;35529;44.342;25.944;2023-03-21T17:04:30;100402.63;;;15.66;100.00
49122;BME280;35529;44.342;25.944;2023-03-21T17:07:04;100400.19;;;15.64;100.00